CFG3655 LIMJ-EDDL
Flight info
| Callsign | CFG3655 |
|---|---|
| Flight time | 1h 22m |
| Altitude | 36000 |
| Route | DCT LAGEN DCT NEDED DCT TOP DCT AOSTA DCT ORSUD DCT MOLUS DCT GILIR DCT PENDU DCT IXILU DCT EPL/N0447F320 DCT ROUSY DCT DIK/N0449F370 N853 ARCKY T853 NVO T857 BIKMU DCT |
| Aircraft | A321/M-SDE3FGHIRWY/LB1 |
Departure
| Time | 2026-04-15 12:37 |
|---|---|
| Airport | Genoa Cristoforo Colombo Airport (LIMJ) |
Arrival
| Time | 2026-04-15 13:59 |
|---|---|
| Airport | Düsseldorf Airport (EDDL) |
| Time | Latitude | Longitude | Altitude | Speed | Heading |
|---|---|---|---|---|---|
| 2026-04-15 11:22 | 44.41416 | 8.85033 | 21 ft | 0 kts | 14° |
| 2026-04-15 11:22 | 44.41417 | 8.85033 | 20 ft | 0 kts | 15° |
| 2026-04-15 12:28 | 44.41395 | 8.85024 | 21 ft | 4 kts | 19° |
| 2026-04-15 12:29 | 44.41370 | 8.85009 | 20 ft | 4 kts | 31° |
| 2026-04-15 12:29 | 44.41351 | 8.84987 | 20 ft | 4 kts | 72° |
| 2026-04-15 12:29 | 44.41352 | 8.84957 | 20 ft | 4 kts | 103° |
| 2026-04-15 12:29 | 44.41358 | 8.84921 | 22 ft | 4 kts | 104° |
| 2026-04-15 12:30 | 44.41365 | 8.84884 | 20 ft | 3 kts | 104° |
| 2026-04-15 12:30 | 44.41366 | 8.84878 | 19 ft | 0 kts | 104° |
| 2026-04-15 12:32 | 44.41366 | 8.84879 | 19 ft | 1 kts | 104° |
| 2026-04-15 12:33 | 44.41352 | 8.84934 | 20 ft | 10 kts | 126° |
| 2026-04-15 12:33 | 44.41278 | 8.84935 | 18 ft | 11 kts | 194° |
| 2026-04-15 12:33 | 44.41203 | 8.84907 | 15 ft | 13 kts | 195° |
| 2026-04-15 12:33 | 44.41126 | 8.84867 | 16 ft | 11 kts | 208° |
| 2026-04-15 12:34 | 44.41067 | 8.84866 | 18 ft | 9 kts | 132° |
| 2026-04-15 12:34 | 44.41036 | 8.84995 | 18 ft | 20 kts | 106° |
| 2026-04-15 12:34 | 44.40988 | 8.85239 | 13 ft | 31 kts | 105° |
| 2026-04-15 12:34 | 44.40933 | 8.85521 | 19 ft | 29 kts | 105° |
| 2026-04-15 12:35 | 44.40884 | 8.85778 | 22 ft | 26 kts | 105° |
| 2026-04-15 12:35 | 44.40851 | 8.85951 | 22 ft | 10 kts | 96° |
| 2026-04-15 12:35 | 44.40867 | 8.86031 | 23 ft | 7 kts | 79° |
| 2026-04-15 12:35 | 44.40837 | 8.86051 | 22 ft | 8 kts | 219° |
| 2026-04-15 12:36 | 44.40865 | 8.85897 | 21 ft | 32 kts | 286° |
| 2026-04-15 12:36 | 44.40986 | 8.85266 | 14 ft | 100 kts | 285° |
| 2026-04-15 12:36 | 44.41213 | 8.84094 | 28 ft | 148 kts | 285° |
| 2026-04-15 12:36 | 44.41506 | 8.82645 | 457 ft | 150 kts | 291° |
| 2026-04-15 12:37 | 44.41797 | 8.81220 | 976 ft | 156 kts | 284° |
| 2026-04-15 12:37 | 44.41672 | 8.79666 | 1425 ft | 173 kts | 252° |
| 2026-04-15 12:37 | 44.40848 | 8.78290 | 1699 ft | 200 kts | 212° |
| 2026-04-15 12:37 | 44.39478 | 8.77919 | 2065 ft | 210 kts | 168° |
| 2026-04-15 12:38 | 44.38209 | 8.78832 | 2529 ft | 206 kts | 133° |
| 2026-04-15 12:38 | 44.37147 | 8.80168 | 3102 ft | 205 kts | 133° |
| 2026-04-15 12:38 | 44.36067 | 8.81457 | 3683 ft | 205 kts | 142° |
| 2026-04-15 12:38 | 44.34729 | 8.82200 | 4214 ft | 212 kts | 168° |
| 2026-04-15 12:39 | 44.33248 | 8.82170 | 4782 ft | 213 kts | 181° |
| 2026-04-15 12:39 | 44.31774 | 8.82028 | 5334 ft | 211 kts | 181° |
| 2026-04-15 12:39 | 44.30293 | 8.81895 | 5800 ft | 215 kts | 180° |
| 2026-04-15 12:39 | 44.28793 | 8.81758 | 6347 ft | 216 kts | 180° |
| 2026-04-15 12:40 | 44.27295 | 8.81620 | 6884 ft | 215 kts | 181° |
| 2026-04-15 12:40 | 44.25797 | 8.81485 | 7379 ft | 216 kts | 182° |
| 2026-04-15 12:40 | 44.24288 | 8.81349 | 7859 ft | 218 kts | 182° |
| 2026-04-15 12:40 | 44.22778 | 8.81212 | 8367 ft | 218 kts | 182° |
| 2026-04-15 12:41 | 44.21262 | 8.81072 | 8831 ft | 220 kts | 182° |
| 2026-04-15 12:41 | 44.19727 | 8.80868 | 9206 ft | 228 kts | 192° |
| 2026-04-15 12:41 | 44.18285 | 8.79803 | 9345 ft | 246 kts | 225° |
| 2026-04-15 12:41 | 44.17622 | 8.78492 | 9445 ft | 257 kts | 248° |
| 2026-04-15 12:42 | 44.17600 | 8.75135 | 9657 ft | 280 kts | 296° |
| 2026-04-15 12:42 | 44.18796 | 8.72977 | 10129 ft | 287 kts | 319° |
| 2026-04-15 12:42 | 44.19826 | 8.71701 | 10307 ft | 301 kts | 322° |
| 2026-04-15 12:42 | 44.21516 | 8.69803 | 10499 ft | 323 kts | 323° |
| 2026-04-15 12:43 | 44.22720 | 8.68507 | 10599 ft | 338 kts | 324° |
| 2026-04-15 12:43 | 44.23324 | 8.67864 | 10934 ft | 325 kts | 324° |
| 2026-04-15 12:43 | 44.25156 | 8.65912 | 11492 ft | 341 kts | 324° |
| 2026-04-15 12:43 | 44.27046 | 8.63858 | 11874 ft | 354 kts | 323° |
| 2026-04-15 12:44 | 44.28989 | 8.61697 | 12489 ft | 359 kts | 323° |
| 2026-04-15 12:44 | 44.30969 | 8.59462 | 13161 ft | 364 kts | 323° |
| 2026-04-15 12:44 | 44.32942 | 8.57219 | 13845 ft | 368 kts | 323° |
| 2026-04-15 12:44 | 44.34929 | 8.54948 | 14466 ft | 371 kts | 322° |
| 2026-04-15 12:45 | 44.36915 | 8.52674 | 15050 ft | 374 kts | 323° |
| 2026-04-15 12:45 | 44.38937 | 8.50359 | 15674 ft | 377 kts | 322° |
| 2026-04-15 12:45 | 44.40968 | 8.48018 | 16269 ft | 380 kts | 321° |
| 2026-04-15 12:45 | 44.43004 | 8.45625 | 16866 ft | 384 kts | 321° |
| 2026-04-15 12:46 | 44.45043 | 8.43197 | 17465 ft | 386 kts | 321° |
| 2026-04-15 12:46 | 44.47092 | 8.40742 | 18089 ft | 388 kts | 321° |
| 2026-04-15 12:46 | 44.49154 | 8.38267 | 18632 ft | 392 kts | 321° |
| 2026-04-15 12:46 | 44.51232 | 8.35772 | 19133 ft | 394 kts | 322° |
| 2026-04-15 12:47 | 44.53317 | 8.33278 | 19664 ft | 395 kts | 321° |
| 2026-04-15 12:47 | 44.55422 | 8.30766 | 20129 ft | 399 kts | 322° |
| 2026-04-15 12:47 | 44.57543 | 8.28240 | 20638 ft | 401 kts | 322° |
| 2026-04-15 12:47 | 44.59674 | 8.25698 | 21140 ft | 403 kts | 322° |
| 2026-04-15 12:48 | 44.61820 | 8.23132 | 21645 ft | 405 kts | 322° |
| 2026-04-15 12:48 | 44.63974 | 8.20553 | 22150 ft | 407 kts | 322° |
| 2026-04-15 12:48 | 44.66135 | 8.17962 | 22643 ft | 410 kts | 322° |
| 2026-04-15 12:48 | 44.68282 | 8.15385 | 23126 ft | 412 kts | 323° |
| 2026-04-15 12:49 | 44.70466 | 8.12762 | 23612 ft | 414 kts | 323° |
| 2026-04-15 12:49 | 44.72660 | 8.10126 | 24020 ft | 416 kts | 323° |
| 2026-04-15 12:49 | 44.74872 | 8.07474 | 24433 ft | 417 kts | 323° |
| 2026-04-15 12:49 | 44.77082 | 8.04822 | 24847 ft | 418 kts | 323° |
| 2026-04-15 12:50 | 44.79299 | 8.02158 | 25248 ft | 420 kts | 323° |
| 2026-04-15 12:50 | 44.81524 | 7.99483 | 25622 ft | 421 kts | 323° |
| 2026-04-15 12:50 | 44.83756 | 7.96800 | 26011 ft | 422 kts | 323° |
| 2026-04-15 12:50 | 44.85995 | 7.94102 | 26403 ft | 424 kts | 323° |
| 2026-04-15 12:51 | 44.88238 | 7.91392 | 26792 ft | 425 kts | 323° |
| 2026-04-15 12:51 | 44.90484 | 7.88677 | 27169 ft | 426 kts | 324° |
| 2026-04-15 12:51 | 44.92881 | 7.86259 | 27517 ft | 423 kts | 333° |
| 2026-04-15 12:51 | 44.95513 | 7.84436 | 27849 ft | 421 kts | 340° |
| 2026-04-15 12:52 | 44.98228 | 7.82870 | 28187 ft | 422 kts | 340° |
| 2026-04-15 12:52 | 45.00951 | 7.81290 | 28542 ft | 424 kts | 340° |
| 2026-04-15 12:52 | 45.03681 | 7.79693 | 28894 ft | 425 kts | 340° |
| 2026-04-15 12:52 | 45.06415 | 7.78082 | 29228 ft | 427 kts | 340° |
| 2026-04-15 12:53 | 45.09159 | 7.76467 | 29553 ft | 428 kts | 340° |
| 2026-04-15 12:53 | 45.11900 | 7.74856 | 30014 ft | 425 kts | 340° |
| 2026-04-15 12:53 | 45.14633 | 7.73249 | 30430 ft | 424 kts | 340° |
| 2026-04-15 12:53 | 45.17359 | 7.71647 | 30788 ft | 423 kts | 340° |
| 2026-04-15 12:54 | 45.20072 | 7.70047 | 31123 ft | 422 kts | 340° |
| 2026-04-15 12:54 | 45.22784 | 7.68448 | 31437 ft | 422 kts | 340° |
| 2026-04-15 12:54 | 45.25495 | 7.66849 | 31773 ft | 422 kts | 340° |
| 2026-04-15 12:54 | 45.28176 | 7.65270 | 32128 ft | 421 kts | 340° |
| 2026-04-15 12:55 | 45.30916 | 7.63654 | 32500 ft | 420 kts | 340° |
| 2026-04-15 12:55 | 45.33577 | 7.62078 | 32884 ft | 419 kts | 340° |
| 2026-04-15 12:55 | 45.36300 | 7.60463 | 33254 ft | 418 kts | 340° |
| 2026-04-15 12:55 | 45.38949 | 7.58896 | 33615 ft | 417 kts | 340° |
| 2026-04-15 12:56 | 45.41636 | 7.57307 | 33986 ft | 417 kts | 340° |
| 2026-04-15 12:56 | 45.44308 | 7.55722 | 34234 ft | 417 kts | 340° |
| 2026-04-15 12:56 | 45.46983 | 7.54129 | 34488 ft | 416 kts | 340° |
| 2026-04-15 12:56 | 45.49652 | 7.52541 | 34829 ft | 415 kts | 340° |
| 2026-04-15 12:57 | 45.52312 | 7.50962 | 35162 ft | 413 kts | 340° |
| 2026-04-15 12:57 | 45.54964 | 7.49388 | 35471 ft | 412 kts | 340° |
| 2026-04-15 12:57 | 45.57623 | 7.47802 | 35754 ft | 412 kts | 340° |
| 2026-04-15 12:57 | 45.60261 | 7.46223 | 35998 ft | 411 kts | 340° |
| 2026-04-15 12:58 | 45.62900 | 7.44641 | 36145 ft | 411 kts | 340° |
| 2026-04-15 12:58 | 45.68123 | 7.41506 | 36171 ft | 408 kts | 340° |
| 2026-04-15 12:59 | 45.75982 | 7.36791 | 36137 ft | 409 kts | 339° |
| 2026-04-15 12:59 | 45.81089 | 7.33141 | 36141 ft | 414 kts | 328° |
| 2026-04-15 13:00 | 45.85783 | 7.28340 | 36146 ft | 415 kts | 328° |
| 2026-04-15 13:00 | 45.90492 | 7.23538 | 36149 ft | 415 kts | 328° |
| 2026-04-15 13:01 | 45.95192 | 7.18757 | 36164 ft | 415 kts | 328° |
| 2026-04-15 13:01 | 45.99906 | 7.13957 | 36165 ft | 415 kts | 328° |
| 2026-04-15 13:02 | 46.04610 | 7.09148 | 36145 ft | 415 kts | 327° |
| 2026-04-15 13:02 | 46.09314 | 7.04308 | 36154 ft | 415 kts | 327° |
| 2026-04-15 13:03 | 46.14016 | 6.99471 | 36149 ft | 416 kts | 327° |
| 2026-04-15 13:03 | 46.18724 | 6.94623 | 36161 ft | 416 kts | 327° |
| 2026-04-15 13:04 | 46.23436 | 6.89760 | 36168 ft | 416 kts | 327° |
| 2026-04-15 13:04 | 46.28135 | 6.84879 | 36178 ft | 416 kts | 326° |
| 2026-04-15 13:05 | 46.32835 | 6.79992 | 36169 ft | 416 kts | 326° |
| 2026-04-15 13:05 | 46.37535 | 6.75101 | 36182 ft | 416 kts | 326° |
| 2026-04-15 13:06 | 46.42245 | 6.70203 | 36193 ft | 416 kts | 326° |
| 2026-04-15 13:06 | 46.47212 | 6.65983 | 36185 ft | 414 kts | 335° |
| 2026-04-15 13:07 | 46.52368 | 6.62359 | 36187 ft | 415 kts | 335° |
| 2026-04-15 13:07 | 46.57563 | 6.58700 | 36196 ft | 416 kts | 335° |
| 2026-04-15 13:08 | 46.62770 | 6.55013 | 36199 ft | 416 kts | 335° |
| 2026-04-15 13:08 | 46.67986 | 6.51325 | 36200 ft | 416 kts | 335° |
| 2026-04-15 13:09 | 46.73198 | 6.47634 | 36176 ft | 416 kts | 334° |
| 2026-04-15 13:09 | 46.78386 | 6.43933 | 36177 ft | 417 kts | 334° |
| 2026-04-15 13:10 | 46.83612 | 6.40206 | 36187 ft | 418 kts | 334° |
| 2026-04-15 13:10 | 46.88848 | 6.36473 | 36189 ft | 419 kts | 334° |
| 2026-04-15 13:11 | 46.94090 | 6.32721 | 36193 ft | 419 kts | 334° |
| 2026-04-15 13:11 | 46.99329 | 6.28962 | 36192 ft | 419 kts | 334° |
| 2026-04-15 13:12 | 47.04538 | 6.25213 | 36192 ft | 419 kts | 334° |
| 2026-04-15 13:12 | 47.10024 | 6.22469 | 36186 ft | 420 kts | 355° |
| 2026-04-15 13:13 | 47.15874 | 6.22156 | 36188 ft | 421 kts | 357° |
| 2026-04-15 13:13 | 47.21743 | 6.21919 | 36189 ft | 421 kts | 357° |
| 2026-04-15 13:14 | 47.27581 | 6.21673 | 36188 ft | 422 kts | 356° |
| 2026-04-15 13:14 | 47.33458 | 6.21404 | 36174 ft | 423 kts | 356° |
| 2026-04-15 13:15 | 47.39362 | 6.21123 | 36173 ft | 425 kts | 356° |
| 2026-04-15 13:15 | 47.45284 | 6.20884 | 36183 ft | 426 kts | 356° |
| 2026-04-15 13:16 | 47.51226 | 6.20645 | 36187 ft | 427 kts | 356° |
| 2026-04-15 13:16 | 47.57171 | 6.20375 | 36191 ft | 427 kts | 356° |
| 2026-04-15 13:17 | 47.63121 | 6.20099 | 36197 ft | 428 kts | 356° |
| 2026-04-15 13:17 | 47.69082 | 6.19825 | 36203 ft | 429 kts | 356° |
| 2026-04-15 13:18 | 47.75008 | 6.19567 | 36203 ft | 429 kts | 356° |
| 2026-04-15 13:18 | 47.80976 | 6.19299 | 36207 ft | 429 kts | 356° |
| 2026-04-15 13:19 | 47.86964 | 6.19021 | 36210 ft | 429 kts | 356° |
| 2026-04-15 13:19 | 47.92944 | 6.18738 | 36202 ft | 429 kts | 356° |
| 2026-04-15 13:20 | 47.98885 | 6.18464 | 36201 ft | 430 kts | 356° |
| 2026-04-15 13:20 | 48.04861 | 6.18197 | 36203 ft | 430 kts | 356° |
| 2026-04-15 13:21 | 48.10856 | 6.17921 | 36211 ft | 430 kts | 355° |
| 2026-04-15 13:21 | 48.16849 | 6.17642 | 36211 ft | 431 kts | 355° |
| 2026-04-15 13:22 | 48.22812 | 6.17377 | 36214 ft | 431 kts | 356° |
| 2026-04-15 13:22 | 48.28818 | 6.17107 | 36226 ft | 431 kts | 355° |
| 2026-04-15 13:23 | 48.34816 | 6.16823 | 36220 ft | 431 kts | 355° |
| 2026-04-15 13:23 | 48.40814 | 6.16545 | 36215 ft | 431 kts | 355° |
| 2026-04-15 13:24 | 48.46816 | 6.16268 | 36209 ft | 431 kts | 355° |
| 2026-04-15 13:24 | 48.52819 | 6.15986 | 36213 ft | 432 kts | 355° |
| 2026-04-15 13:25 | 48.58822 | 6.15715 | 36211 ft | 432 kts | 355° |
| 2026-04-15 13:25 | 48.64828 | 6.15434 | 36209 ft | 432 kts | 355° |
| 2026-04-15 13:26 | 48.70800 | 6.15152 | 36209 ft | 432 kts | 355° |
| 2026-04-15 13:26 | 48.76807 | 6.14871 | 36208 ft | 432 kts | 355° |
| 2026-04-15 13:27 | 48.82815 | 6.14590 | 36205 ft | 432 kts | 355° |
| 2026-04-15 13:27 | 48.88826 | 6.14304 | 36208 ft | 432 kts | 355° |
| 2026-04-15 13:28 | 48.94847 | 6.14014 | 36206 ft | 433 kts | 355° |
| 2026-04-15 13:28 | 48.99863 | 6.13772 | 36199 ft | 435 kts | 355° |
| 2026-04-15 13:29 | 49.05921 | 6.13484 | 36198 ft | 436 kts | 355° |
| 2026-04-15 13:29 | 49.11999 | 6.13205 | 36198 ft | 437 kts | 355° |
| 2026-04-15 13:30 | 49.18090 | 6.12921 | 36205 ft | 438 kts | 355° |
| 2026-04-15 13:30 | 49.24187 | 6.12626 | 36200 ft | 438 kts | 355° |
| 2026-04-15 13:31 | 49.30296 | 6.12331 | 36199 ft | 439 kts | 355° |
| 2026-04-15 13:31 | 49.36403 | 6.12035 | 36217 ft | 439 kts | 355° |
| 2026-04-15 13:32 | 49.42521 | 6.11741 | 36209 ft | 440 kts | 355° |
| 2026-04-15 13:32 | 49.48619 | 6.11474 | 36205 ft | 441 kts | 356° |
| 2026-04-15 13:33 | 49.54724 | 6.11580 | 36203 ft | 442 kts | 358° |
| 2026-04-15 13:33 | 49.60893 | 6.11941 | 36215 ft | 443 kts | 359° |
| 2026-04-15 13:34 | 49.67045 | 6.12260 | 36209 ft | 442 kts | 358° |
| 2026-04-15 13:34 | 49.73161 | 6.12491 | 36205 ft | 442 kts | 358° |
| 2026-04-15 13:35 | 49.79315 | 6.12702 | 36203 ft | 442 kts | 358° |
| 2026-04-15 13:35 | 49.85474 | 6.12942 | 36208 ft | 443 kts | 358° |
| 2026-04-15 13:36 | 49.91637 | 6.13096 | 35938 ft | 443 kts | 356° |
| 2026-04-15 13:36 | 49.94724 | 6.13100 | 35684 ft | 443 kts | 356° |
| 2026-04-15 13:36 | 49.97812 | 6.13086 | 35319 ft | 444 kts | 356° |
| 2026-04-15 13:37 | 50.00923 | 6.13071 | 34432 ft | 450 kts | 356° |
| 2026-04-15 13:37 | 50.03803 | 6.13064 | 33566 ft | 456 kts | 356° |
| 2026-04-15 13:37 | 50.06751 | 6.13068 | 32682 ft | 460 kts | 357° |
| 2026-04-15 13:37 | 50.09968 | 6.13082 | 31724 ft | 465 kts | 357° |
| 2026-04-15 13:38 | 50.13211 | 6.13104 | 30797 ft | 468 kts | 357° |
| 2026-04-15 13:38 | 50.16494 | 6.13129 | 29610 ft | 474 kts | 358° |
| 2026-04-15 13:38 | 50.19805 | 6.13152 | 28590 ft | 475 kts | 358° |
| 2026-04-15 13:38 | 50.23037 | 6.13177 | 28051 ft | 467 kts | 358° |
| 2026-04-15 13:39 | 50.26274 | 6.13396 | 27356 ft | 465 kts | 5° |
| 2026-04-15 13:39 | 50.29443 | 6.14394 | 26675 ft | 465 kts | 14° |
| 2026-04-15 13:39 | 50.32458 | 6.16180 | 26023 ft | 463 kts | 24° |
| 2026-04-15 13:39 | 50.35246 | 6.18683 | 25368 ft | 461 kts | 31° |
| 2026-04-15 13:40 | 50.37918 | 6.21429 | 24719 ft | 458 kts | 31° |
| 2026-04-15 13:40 | 50.40574 | 6.24153 | 24088 ft | 454 kts | 31° |
| 2026-04-15 13:40 | 50.43214 | 6.26864 | 23415 ft | 451 kts | 32° |
| 2026-04-15 13:40 | 50.45825 | 6.29556 | 22792 ft | 445 kts | 32° |
| 2026-04-15 13:41 | 50.48356 | 6.32169 | 22244 ft | 438 kts | 32° |
| 2026-04-15 13:41 | 50.50900 | 6.34752 | 21685 ft | 432 kts | 30° |
| 2026-04-15 13:41 | 50.53443 | 6.37184 | 21172 ft | 424 kts | 29° |
| 2026-04-15 13:41 | 50.55975 | 6.39501 | 20687 ft | 418 kts | 28° |
| 2026-04-15 13:42 | 50.58481 | 6.41743 | 20205 ft | 411 kts | 27° |
| 2026-04-15 13:42 | 50.60947 | 6.43946 | 19740 ft | 405 kts | 28° |
| 2026-04-15 13:42 | 50.63376 | 6.46137 | 19303 ft | 399 kts | 28° |
| 2026-04-15 13:42 | 50.65763 | 6.48312 | 18855 ft | 394 kts | 28° |
| 2026-04-15 13:43 | 50.68122 | 6.50479 | 18401 ft | 389 kts | 28° |
| 2026-04-15 13:43 | 50.70446 | 6.52628 | 17937 ft | 384 kts | 28° |
| 2026-04-15 13:43 | 50.72736 | 6.54756 | 17484 ft | 379 kts | 29° |
| 2026-04-15 13:43 | 50.74994 | 6.56863 | 17059 ft | 375 kts | 29° |
| 2026-04-15 13:44 | 50.77227 | 6.58952 | 16606 ft | 372 kts | 29° |
| 2026-04-15 13:44 | 50.79445 | 6.61022 | 16162 ft | 370 kts | 29° |
| 2026-04-15 13:44 | 50.81730 | 6.62833 | 15705 ft | 365 kts | 19° |
| 2026-04-15 13:44 | 50.84145 | 6.64000 | 15252 ft | 361 kts | 9° |
| 2026-04-15 13:45 | 50.86616 | 6.64590 | 14791 ft | 358 kts | 5° |
| 2026-04-15 13:45 | 50.89075 | 6.65099 | 14334 ft | 356 kts | 5° |
| 2026-04-15 13:45 | 50.91526 | 6.65617 | 13858 ft | 354 kts | 6° |
| 2026-04-15 13:47 | 51.08210 | 6.67465 | 10854 ft | 327 kts | 355° |
| 2026-04-15 13:47 | 51.10447 | 6.67491 | 10730 ft | 316 kts | 4° |
| 2026-04-15 13:47 | 51.12538 | 6.68151 | 10590 ft | 307 kts | 14° |
| 2026-04-15 13:48 | 51.14569 | 6.69091 | 10356 ft | 300 kts | 14° |
| 2026-04-15 13:48 | 51.16575 | 6.70010 | 10125 ft | 299 kts | 14° |
| 2026-04-15 13:48 | 51.18575 | 6.70920 | 10001 ft | 299 kts | 14° |
| 2026-04-15 13:48 | 51.20570 | 6.71827 | 9852 ft | 298 kts | 14° |
| 2026-04-15 13:49 | 51.22569 | 6.72736 | 9431 ft | 298 kts | 14° |
| 2026-04-15 13:49 | 51.24567 | 6.73645 | 8975 ft | 299 kts | 14° |
| 2026-04-15 13:49 | 51.26561 | 6.74556 | 8678 ft | 296 kts | 15° |
| 2026-04-15 13:49 | 51.28481 | 6.75722 | 8305 ft | 295 kts | 27° |
| 2026-04-15 13:50 | 51.30182 | 6.77539 | 7801 ft | 294 kts | 36° |
| 2026-04-15 13:50 | 51.31818 | 6.79477 | 7210 ft | 291 kts | 36° |
| 2026-04-15 13:50 | 51.33437 | 6.81380 | 6728 ft | 288 kts | 36° |
| 2026-04-15 13:50 | 51.35057 | 6.83282 | 6291 ft | 289 kts | 36° |
| 2026-04-15 13:51 | 51.36672 | 6.85181 | 5810 ft | 286 kts | 37° |
| 2026-04-15 13:51 | 51.38241 | 6.87020 | 5342 ft | 274 kts | 38° |
| 2026-04-15 13:51 | 51.39771 | 6.88821 | 4823 ft | 273 kts | 38° |
| 2026-04-15 13:51 | 51.41265 | 6.90586 | 4740 ft | 260 kts | 38° |
| 2026-04-15 13:52 | 51.42685 | 6.92266 | 4659 ft | 248 kts | 38° |
| 2026-04-15 13:52 | 51.44038 | 6.93885 | 4557 ft | 238 kts | 41° |
| 2026-04-15 13:52 | 51.45007 | 6.95909 | 4392 ft | 229 kts | 71° |
| 2026-04-15 13:52 | 51.45185 | 6.98314 | 4221 ft | 212 kts | 103° |
| 2026-04-15 13:53 | 51.44639 | 7.00400 | 4054 ft | 200 kts | 131° |
| 2026-04-15 13:53 | 51.43599 | 7.01792 | 3908 ft | 194 kts | 155° |
| 2026-04-15 13:53 | 51.42292 | 7.02283 | 3771 ft | 194 kts | 181° |
| 2026-04-15 13:53 | 51.41026 | 7.01803 | 3683 ft | 181 kts | 204° |
| 2026-04-15 13:54 | 51.40078 | 7.00625 | 3582 ft | 168 kts | 226° |
| 2026-04-15 13:54 | 51.39356 | 6.99195 | 3378 ft | 161 kts | 229° |
| 2026-04-15 13:54 | 51.38685 | 6.97798 | 3174 ft | 156 kts | 229° |
| 2026-04-15 13:54 | 51.38032 | 6.96424 | 2970 ft | 155 kts | 230° |
| 2026-04-15 13:55 | 51.37376 | 6.95042 | 2766 ft | 153 kts | 230° |
| 2026-04-15 13:55 | 51.36747 | 6.93712 | 2568 ft | 146 kts | 229° |
| 2026-04-15 13:55 | 51.36157 | 6.92465 | 2365 ft | 141 kts | 229° |
| 2026-04-15 13:55 | 51.35566 | 6.91219 | 2173 ft | 139 kts | 231° |
| 2026-04-15 13:56 | 51.34987 | 6.89996 | 1987 ft | 137 kts | 229° |
| 2026-04-15 13:56 | 51.34408 | 6.88778 | 1796 ft | 138 kts | 229° |
| 2026-04-15 13:56 | 51.33832 | 6.87562 | 1605 ft | 137 kts | 230° |
| 2026-04-15 13:56 | 51.33256 | 6.86346 | 1425 ft | 137 kts | 231° |
| 2026-04-15 13:57 | 51.32680 | 6.85131 | 1248 ft | 137 kts | 229° |
| 2026-04-15 13:57 | 51.32107 | 6.83923 | 1043 ft | 136 kts | 229° |
| 2026-04-15 13:57 | 51.31540 | 6.82721 | 865 ft | 136 kts | 229° |
| 2026-04-15 13:57 | 51.30972 | 6.81515 | 708 ft | 137 kts | 230° |
| 2026-04-15 13:58 | 51.30393 | 6.80294 | 514 ft | 138 kts | 227° |
| 2026-04-15 13:58 | 51.29812 | 6.79075 | 317 ft | 138 kts | 229° |
| 2026-04-15 13:58 | 51.29232 | 6.77858 | 147 ft | 135 kts | 228° |
| 2026-04-15 13:58 | 51.28735 | 6.76830 | 132 ft | 89 kts | 233° |
| 2026-04-15 13:59 | 51.28460 | 6.76247 | 125 ft | 48 kts | 234° |
| 2026-04-15 13:59 | 51.28314 | 6.76033 | 126 ft | 25 kts | 206° |
| 2026-04-15 13:59 | 51.28153 | 6.75918 | 126 ft | 25 kts | 204° |
| 2026-04-15 13:59 | 51.28016 | 6.75773 | 129 ft | 23 kts | 234° |
| 2026-04-15 14:00 | 51.27915 | 6.75570 | 125 ft | 24 kts | 232° |
| 2026-04-15 14:00 | 51.27844 | 6.75422 | 123 ft | 11 kts | 233° |
| 2026-04-15 14:00 | 51.27777 | 6.75398 | 124 ft | 11 kts | 151° |
| 2026-04-15 14:00 | 51.27712 | 6.75456 | 126 ft | 10 kts | 151° |
| 2026-04-15 14:01 | 51.27597 | 6.75536 | 125 ft | 8 kts | 161° |
| 2026-04-15 14:01 | 51.27536 | 6.75582 | 126 ft | 9 kts | 148° |
| 2026-04-15 14:01 | 51.27541 | 6.75655 | 126 ft | 7 kts | 62° |
| 2026-04-15 14:02 | 51.27549 | 6.75681 | 129 ft | 0 kts | 63° |